createdAt,value
2022-10-12T00:03:32.138Z,100.00
2022-10-12T00:13:54.079Z,100.00
2022-10-12T00:24:15.554Z,100.00
2022-10-12T00:34:37.034Z,100.00
2022-10-12T00:44:58.505Z,100.00
2022-10-12T00:55:23.268Z,100.00
2022-10-12T01:05:44.792Z,100.00
2022-10-12T01:16:16.427Z,100.00
2022-10-12T01:27:02.983Z,100.00
2022-10-12T01:37:45.704Z,100.00
2022-10-12T01:48:07.535Z,100.00
2022-10-12T01:58:56.930Z,100.00
2022-10-12T02:09:26.293Z,100.00
2022-10-12T02:19:56.016Z,100.00
2022-10-12T02:30:21.166Z,100.00
2022-10-12T02:41:01.281Z,100.00
2022-10-12T02:51:24.109Z,100.00
2022-10-12T03:01:45.803Z,100.00
2022-10-12T03:12:07.397Z,100.00
2022-10-12T03:22:28.863Z,100.00
2022-10-12T03:32:50.409Z,100.00
2022-10-12T03:43:12.435Z,100.00
2022-10-12T03:53:33.783Z,100.00
2022-10-12T04:03:55.263Z,100.00
2022-10-12T04:14:16.726Z,100.00
2022-10-12T04:24:38.253Z,100.00
2022-10-12T04:34:59.695Z,100.00
2022-10-12T04:45:21.563Z,100.00
2022-10-12T04:55:43.054Z,100.00
2022-10-12T05:06:04.602Z,100.00
2022-10-12T05:16:26.101Z,100.00
2022-10-12T05:26:47.561Z,100.00
2022-10-12T05:37:09.251Z,100.00
2022-10-12T05:47:30.827Z,100.00
2022-10-12T05:57:52.409Z,100.00
2022-10-12T06:08:14.468Z,100.00
2022-10-12T06:18:35.844Z,100.00
2022-10-12T06:28:57.571Z,100.00
2022-10-12T06:39:19.869Z,100.00
2022-10-12T06:49:41.349Z,100.00
2022-10-12T07:00:02.980Z,100.00
2022-10-12T07:10:25.172Z,100.00
2022-10-12T07:20:46.691Z,100.00
2022-10-12T07:31:09.858Z,100.00
2022-10-12T07:41:31.428Z,100.00
2022-10-12T07:51:52.951Z,100.00
2022-10-12T08:02:14.542Z,99.86
2022-10-12T08:12:36.041Z,100.00
2022-10-12T08:22:57.512Z,98.22
2022-10-12T08:33:19.389Z,97.85
2022-10-12T08:44:18.993Z,98.93
2022-10-12T08:54:45.539Z,94.47
2022-10-12T09:05:10.832Z,92.21
2022-10-12T09:15:37.443Z,94.37
2022-10-12T09:26:20.876Z,91.33
2022-10-12T09:36:42.727Z,88.36
2022-10-12T09:47:06.096Z,90.03
2022-10-12T09:57:36.035Z,85.48
2022-10-12T10:08:20.322Z,83.80
2022-10-12T10:18:49.847Z,83.51
2022-10-12T10:29:40.086Z,82.14
2022-10-12T10:40:02.884Z,75.78
2022-10-12T10:50:31.371Z,72.34
2022-10-12T11:00:58.152Z,71.83
2022-10-12T11:11:25.132Z,73.09
2022-10-12T11:22:16.893Z,71.56
2022-10-12T11:32:45.176Z,72.53
2022-10-12T11:43:12.438Z,69.02
2022-10-12T11:53:46.511Z,72.12
2022-10-12T12:04:40.634Z,74.86
2022-10-12T12:15:01.863Z,71.09
2022-10-12T12:25:31.811Z,68.70
2022-10-12T12:36:27.588Z,65.61
2022-10-12T12:46:52.159Z,65.35
2022-10-12T12:57:49.063Z,66.65
2022-10-12T13:08:19.301Z,66.39
2022-10-12T13:18:49.317Z,67.97
2022-10-12T13:29:21.870Z,64.70
2022-10-12T13:39:46.946Z,62.15
2022-10-12T13:50:19.748Z,64.83
2022-10-12T14:00:47.507Z,70.83
2022-10-12T14:11:09.259Z,65.69
2022-10-12T14:21:36.594Z,67.34
2022-10-12T14:32:01.584Z,67.54
2022-10-12T14:42:27.320Z,68.86
2022-10-12T14:52:52.147Z,67.86
2022-10-12T15:03:13.736Z,68.43
2022-10-12T15:13:35.114Z,71.85
2022-10-12T15:23:57.122Z,69.47
2022-10-12T15:34:18.716Z,65.09
2022-10-12T15:44:41.341Z,66.71
2022-10-12T15:55:02.813Z,72.64
2022-10-12T16:05:27.305Z,75.54
2022-10-12T16:15:48.829Z,77.47
2022-10-12T16:26:12.181Z,79.13
2022-10-12T16:36:33.664Z,81.42
2022-10-12T16:46:55.060Z,85.14
2022-10-12T16:57:16.552Z,85.95
2022-10-12T17:07:37.933Z,87.58
2022-10-12T17:17:59.627Z,86.62
2022-10-12T17:28:20.989Z,87.83
2022-10-12T17:38:42.396Z,87.63
2022-10-12T17:49:04.590Z,88.84
2022-10-12T17:59:26.699Z,89.41
2022-10-12T18:09:49.197Z,89.86
2022-10-12T18:20:10.843Z,90.01
2022-10-12T18:30:32.282Z,90.34
2022-10-12T18:40:53.721Z,91.11
2022-10-12T18:51:17.861Z,91.48
2022-10-12T19:01:39.288Z,91.72
2022-10-12T19:12:00.662Z,87.58
2022-10-12T19:22:22.075Z,86.75
2022-10-12T19:32:43.538Z,87.85
2022-10-12T19:43:05.042Z,89.78
2022-10-12T19:53:26.421Z,90.49
2022-10-12T20:03:52.296Z,91.82
2022-10-12T20:14:13.721Z,90.71
2022-10-12T20:24:36.319Z,88.10
2022-10-12T20:34:57.750Z,91.83
2022-10-12T20:45:19.119Z,92.10
2022-10-12T20:55:40.471Z,91.13
2022-10-12T21:06:06.141Z,91.07
2022-10-12T21:16:27.583Z,90.17
2022-10-12T21:26:51.179Z,91.34
2022-10-12T21:37:12.608Z,92.65
2022-10-12T21:47:33.961Z,93.05
2022-10-12T21:57:55.298Z,92.64
2022-10-12T22:08:16.905Z,92.06
2022-10-12T22:18:38.246Z,93.90
2022-10-12T22:29:00.025Z,93.46
2022-10-12T22:39:21.374Z,93.86
2022-10-12T22:49:42.731Z,96.01
2022-10-12T23:00:05.229Z,96.19
2022-10-12T23:10:26.633Z,96.26
2022-10-12T23:20:47.969Z,97.04
2022-10-12T23:31:10.271Z,96.34
2022-10-12T23:41:31.916Z,97.91
2022-10-12T23:51:53.264Z,95.42
